This is the latest recevied weather packets stored in our database for station/object IT9CYW-12. If no packets are shown the sender has not sent any weather packets the latest 10 day(s).
| Time | Temp. | Humidity | Pressure | Rain* | Wind** | Luminosity | Snow |
|---|---|---|---|---|---|---|---|
| 1777726618 | 15.56° C | 53% | 984.5 hPa | - | - | 701 W/m² | - |
| 1777725717 | 15° C | 57% | 984.7 hPa | - | - | 167 W/m² | - |
| 1777724032 | 15° C | 54% | 984.5 hPa | - | - | 162 W/m² | - |
| 1777723131 | 15° C | 57% | 984.5 hPa | - | - | 160 W/m² | - |
| 1777722231 | 15° C | 59% | 984.5 hPa | - | - | 183 W/m² | - |
| 1777721330 | 15.56° C | 58% | 984.7 hPa | - | - | 144 W/m² | - |
| 1777720429 | 15.56° C | 55% | 984.7 hPa | - | - | 129 W/m² | - |
| 1777719529 | 15.56° C | 56% | 984.5 hPa | - | - | 171 W/m² | - |
| 1777718629 | 15° C | 56% | 984.9 hPa | - | - | 229 W/m² | - |
| 1777717729 | 15° C | 55% | 984.7 hPa | - | - | 133 W/m² | - |
| 1777716829 | 15.56° C | 55% | 984.7 hPa | - | - | 157 W/m² | - |
| 1777715929 | 16.11° C | 49% | 984.7 hPa | - | - | 634 W/m² | - |
| 1777715028 | 16.67° C | 51% | 984.7 hPa | - | - | 179 W/m² | - |
| 1777714128 | 16.67° C | 51% | 984.5 hPa | - | - | 871 W/m² | - |
| 1777713228 | 16.67° C | 51% | 984.5 hPa | - | - | 839 W/m² | - |
| 1777712327 | 16.67° C | 51% | 984.5 hPa | - | - | 839 W/m² | - |
| 1777711427 | 16.67° C | 50% | 984.5 hPa | - | - | 93 W/m² | - |
| 1777710526 | 16.11° C | 46% | 984.5 hPa | - | - | 80 W/m² | - |
| 1777709626 | 16.11° C | 48% | 984.4 hPa | - | - | 72 W/m² | - |
| 1777708726 | 16.11° C | 47% | 984.5 hPa | - | - | 66 W/m² | - |
| 1777707826 | 15.56° C | 49% | 984.2 hPa | - | - | 542 W/m² | - |
| 1777691626 | 12.78° C | 59% | 983.2 hPa | - | - | 0 W/m² | - |
| 1777690726 | 12.78° C | 61% | 983.2 hPa | - | - | 0 W/m² | - |
| 1777689825 | 12.78° C | 68% | 983.2 hPa | - | - | 0 W/m² | - |
| 1777688925 | 12.78° C | 68% | 983.5 hPa | - | - | 0 W/m² | - |
* Rain since midnight (hover to see other rain measurements)
** Current wind speed in m/s (hover to see current wind gust speed)